Sonic Adventure (DX): Time Rankings

Records: Times | Rings | Scores | Races | Bosses | Freestyle
Leaders: Times | Rings | Scores | Races | Bosses | Freestyle | Overall
Rank Player Percent Points Date
1 Sonicspeedruner 99.0% 47 12-17-14
2 Gamepro011 98.4% 76 12-17-14
3 Jawzun 96.4% 180 12-17-14
4 Dashjump 94.4% 277 12-17-14
5 DarkPolarNight 93.5% 322 12-17-14
6 F-Man 92.4% 382 12-17-14
7 THC98 92.3% 387 12-17-14
8 ike6252 91.2% 438 12-17-14
9 Avento128bits 91.0% 449 12-17-14
10 francisco 91.0% 452 12-17-14
11 DarkspinesSonic 90.6% 471 12-17-14
12 Marth 90.4% 479 12-17-14
13 frankoredstrato 89.2% 539 12-17-14
14 Paragod 86.1% 698 12-17-14
15 chainchumper 84.8% 760 12-17-14
16 HyperSonic7701 82.7% 865 12-17-14
17 Stefan 82.0% 903 12-17-14
18 Redd 81.3% 939 12-17-14
19 PfoSonic 81.1% 948 12-17-14
20 InferSaime 81.0% 954 12-17-14
21 bertin 79.4% 1032 12-17-14
22 yoshifan 79.0% 1055 12-17-14
23 drminus 78.7% 1071 12-17-14
24 Coolfansonic 78.1% 1100 12-17-14
25 Dave Cramer 77.1% 1147 12-17-14
26 RPGnutter 77.0% 1155 12-17-14
27 sonicam 75.1% 1252 12-17-14
28 Cybrax 75.0% 1257 12-17-14
29 Ring Rush 72.5% 1379 12-17-14
30 mike89 71.5% 1430 12-17-14
31 NintenDan 71.4% 1438 12-17-14
32 SkyLights 67.6% 1627 12-17-14
33 Combo 66.1% 1701 12-17-14
34 SonicDash1999 65.5% 1731 12-17-14
35 SADXTryHard 63.6% 1826 12-17-14
36 P1 Pause 63.3% 1843 12-17-14
37 Groudon199 61.1% 1956 12-17-14
38 Shadow Jacky 60.4% 1989 12-17-14
39 Dawid8404 60.2% 1999 12-17-14
40 Thorn 59.2% 2051 12-17-14
41 VMU Player Banned 59.1% 2055 12-17-14
42 SB737 57.9% 2114 12-17-14
43 The Knuckles Chao 57.8% 2121 12-17-14
44 Chao_Fan 57.4% 2138 12-17-14
45 SadisticMystic 57.2% 2150 12-17-14
46 Parax 56.4% 2190 12-17-14
47 OmegaDJ 56.3% 2194 12-17-14
48 mauserman 56.0% 2210 12-17-14
49 Psyknux 55.9% 2216 12-17-14
50 Mastakirby 55.8% 2220 12-17-14
51 Auriman1 55.5% 2233 12-17-14
52 magnum12 55.5% 2236 12-17-14
53 KinkyCadence 54.8% 2269 12-17-14
54 Turbos 54.8% 2272 12-17-14
55 GerbilSoft 54.6% 2283 12-17-14
56 GreatStar 54.2% 2303 12-17-14
57 Webber3000 53.4% 2343 12-17-14
58 Nimrod 52.6% 2380 12-17-14
59 Hipertails12 52.3% 2395 12-17-14
60 James_Bertolli 50.2% 2502 12-17-14
61 Cream147 49.8% 2522 12-17-14
62 Skylace 49.4% 2544 12-17-14
63 welldooder64 49.3% 2548 12-17-14
64 Diamond 48.9% 2565 12-17-14
65 Omega Rafael Santos 48.8% 2570 12-17-14
66 Quartz 48.8% 2574 12-17-14
67 Psymar 48.5% 2589 12-17-14
68 teamblackarms 47.3% 2649 12-17-14
69 buddychaos0415 46.7% 2679 12-17-14
70 SilverSonic 46.3% 2698 12-17-14
71 Andrea Ritsu 45.5% 2736 12-17-14
72 SilvertheAlmighty 45.2% 2751 12-17-14
73 itsPersonnal 45.0% 2761 12-17-14
74 metanightmare22 44.4% 2795 12-17-14
75 lordmetalsonic 42.4% 2896 12-17-14
76 Arch 41.7% 2927 12-17-14
77 videogamemaster777 41.1% 2959 12-17-14
78 Termon 41.1% 2962 12-17-14
79 supersonicfan 40.5% 2988 12-17-14
80 Kanimayo_Jp 39.9% 3020 12-17-14
81 LilZero 39.5% 3039 12-17-14
82 FuzZerd 39.1% 3058 12-17-14
83 paulie9990 39.1% 3061 12-17-14
84 eggFL 38.7% 3080 12-17-14
85 Don 38.0% 3116 12-17-14
86 Siavash Tazari 37.2% 3155 12-17-14
87 Fr3nZy 37.0% 3167 12-17-14
88 f0rever_zer0 36.1% 3213 12-17-14
89 Cod4Scopes 35.6% 3234 12-17-14
90 Cyan Ryan 35.3% 3249 12-17-14
91 supersonic465 35.2% 3258 12-17-14
92 LinksDarkArrows 35.0% 3265 12-17-14
93 Austinf 34.2% 3307 12-17-14
94 elecmouse101 34.1% 3314 12-17-14
95 Staf 33.9% 3324 12-17-14
96 MiStEr_ShAoLiN 33.6% 3338 12-17-14
97 BrokenArthritis 33.1% 3360 12-17-14
98 danieldude 33.0% 3366 12-17-14
99 Therio 32.9% 3372 12-17-14
100 Xia 32.5% 3393 12-17-14
101 welshmoose05 32.0% 3418 12-17-14
102 The Great Lord Mick 30.9% 3474 12-17-14
103 Mcshuggets 30.7% 3484 12-17-14
104 Maxinfamily 30.3% 3503 12-17-14
105 Aitamen 30.3% 3504 12-17-14
106 Matt_TY 30.0% 3516 12-17-14
106 videogamer1014 30.0% 3516 12-17-14
108 dabestgamer 29.8% 3527 12-17-14
108 joecoolgames 29.8% 3527 12-17-14
110 imazor017 29.2% 3557 12-17-14
111 superjupi 28.5% 3595 12-17-14
111 SuperSonic101 28.5% 3595 12-17-14
113 Shadowthegreat 28.4% 3597 12-17-14
114 Rolken 27.9% 3625 12-17-14
115 Hunters13 27.5% 3645 12-17-14
116 SaviourDC 27.3% 3653 12-17-14
117 iarebored 27.2% 3658 12-17-14
118 sonamyfan666 27.2% 3660 12-17-14
119 Spinballwizard 27.0% 3669 12-17-14
120 SonicKnuckles 26.8% 3680 12-17-14
121 EngiNerd 25.9% 3723 12-17-14
122 adf 25.7% 3735 12-17-14
123 Megaman EXE565 25.2% 3761 12-17-14
124 The T 24.6% 3787 12-17-14
125 Sonic Singularity 24.1% 3816 12-17-14
126 Platformer 24.0% 3822 12-17-14
127 Pokemonmaster888 23.8% 3830 12-17-14
128 SeaWolf 23.7% 3834 12-17-14
129 timpkmn89 23.5% 3845 12-17-14
130 Swift Hobo 23.2% 3862 12-17-14
131 Sondow 22.7% 3883 12-17-14
132 Rickyman48 22.6% 3889 12-17-14
133 FoxBoy 22.0% 3920 12-17-14
134 KitsuneYamaro 21.9% 3923 12-17-14
135 TFEC Headshot 21.7% 3935 12-17-14
136 Kogen Player Banned 21.4% 3951 12-17-14
137 Starlight Sable 20.5% 3995 12-17-14
138 IsisDazs 20.1% 4017 12-17-14
139 HyperSonic64 20.0% 4021 12-17-14
140 SonicWinDX 19.6% 4039 12-17-14
141 crazy1993 19.5% 4044 12-17-14
142 andres430 19.3% 4055 12-17-14
143 SonicAD 18.0% 4122 12-17-14
144 MPit08 18.0% 4123 12-17-14
145 sonicd5 17.7% 4135 12-17-14
146 iSonicKid2K 17.3% 4155 12-17-14
147 dShadow 17.3% 4157 12-17-14
148 Cutiefox 16.6% 4193 12-17-14
149 Chawkk 16.6% 4194 12-17-14
150 BigAL49 16.5% 4195 12-17-14
151 Miles9999 16.4% 4202 12-17-14
152 Monkeh 16.2% 4212 12-17-14
153 DaDude 15.8% 4230 12-17-14
154 Drflash55 15.6% 4244 12-17-14
155 Bass 15.1% 4267 12-17-14
156 neaolas 14.9% 4276 12-17-14
157 Cruizer 14.8% 4282 12-17-14
158 superiorsonic 14.7% 4287 12-17-14
159 UninspiredUsername 14.6% 4290 12-17-14
160 zapp 14.5% 4296 12-17-14
161 gamefreak1292 14.2% 4314 12-17-14
162 Cooljay 13.6% 4341 12-17-14
163 SonicU260 13.3% 4356 12-17-14
164 Chaos_Overlord 13.3% 4359 12-17-14
165 Valfore 12.8% 4384 12-17-14
166 GarnetPrincess 12.5% 4396 12-17-14
167 soniccoloursunleashed 12.2% 4412 12-17-14
168 ShinigamiMachine 12.0% 4421 12-17-14
169 Sonicsuperstar1 11.8% 4435 12-17-14
170 booo95 11.3% 4459 12-17-14
171 SirTobbii 11.2% 4461 12-17-14
172 Werey 11.1% 4468 12-17-14
173 Mo Player Banned 10.8% 4482 12-17-14
174 sonicspeed 10.8% 4483 12-17-14
175 Venick409 10.0% 4526 12-17-14
176 Sithwarrior26 9.9% 4530 12-17-14
177 ingx24 9.5% 4549 12-17-14
178 CyberShadow 9.3% 4559 12-17-14
179 Fozer 9.0% 4576 12-17-14
180 Colomb_30 8.8% 4582 12-17-14
181 Regano1000 8.5% 4597 12-17-14
182 1stKirbyever 8.3% 4608 12-17-14
183 nuckrieg 7.9% 4628 12-17-14
184 Brian_pso 7.9% 4630 12-17-14
185 douglas 7.7% 4638 12-17-14
186 TakaRikka 7.6% 4644 12-17-14
186 Th4tN1nj4Turtl3 7.6% 4644 12-17-14
188 Zip 7.6% 4645 12-17-14
189 Mariosonic15 7.2% 4663 12-17-14
190 wheatrich 7.2% 4666 12-17-14
191 ieatatsonic 6.9% 4677 12-17-14
192 MStitomix 6.9% 4681 12-17-14
193 HermitHelmet 6.8% 4682 12-17-14
194 niscool 6.7% 4690 12-17-14
195 Triseena 6.6% 4696 12-17-14
196 Cort_pso 6.5% 4702 12-17-14
197 Jose_15 6.2% 4713 12-17-14
198 a_moustache 6.2% 4717 12-17-14
199 Artie 6.1% 4720 12-17-14
200 BlankTH 6.0% 4723 12-17-14
201 Ace747 5.7% 4741 12-17-14
202 Richied 5.6% 4743 12-17-14
203 Paixii 5.3% 4758 12-17-14
204 slade23 5.1% 4770 12-17-14
205 BallzeH 5.0% 4774 12-17-14
206 ArcticDragon 5.0% 4776 12-17-14
207 FSSRandomvids 4.9% 4778 12-17-14
207 Mankster101 4.9% 4778 12-17-14
207 PsyBorg 4.9% 4778 12-17-14
210 BecauseWarAnvil 4.9% 4779 12-17-14
211 Jamixesa 4.8% 4783 12-17-14
212 Nickson98 4.8% 4787 12-17-14
213 Crydio 4.6% 4794 12-17-14
214 TheUltraBlur 4.5% 4799 12-17-14
215 ReuelBrony 4.5% 4802 12-17-14
216 stanski 4.4% 4807 12-17-14
217 tal39h 4.3% 4812 12-17-14
218 knuckles_sonic8 4.1% 4822 12-17-14
219 p0ker 4.0% 4823 12-17-14
220 Blue Infamy 4.0% 4824 12-17-14
221 ErrortheCucco 3.8% 4833 12-17-14
222 Rikum22 3.8% 4836 12-17-14
223 sonic1001 3.6% 4844 12-17-14
223 TheChaosEmeraIds 3.6% 4844 12-17-14
225 syco1098 3.5% 4851 12-17-14
226 AJSIV 3.4% 4853 12-17-14
227 Sonic the Hedgehod16 3.4% 4854 12-17-14
228 Calfd 3.3% 4862 12-17-14
229 themachoman202 3.0% 4875 12-17-14
230 MK 3.0% 4877 12-17-14
231 Fivavoa 2.9% 4883 12-17-14
232 BlackArmsShadow 2.8% 4885 12-17-14
233 Mr. Jones 2.8% 4886 12-17-14
233 ptorflaxendrosis 2.8% 4886 12-17-14
235 djmat 2.8% 4887 12-17-14
236 arcfx1985 2.8% 4888 12-17-14
237 Sonique Hedgehog 2.7% 4890 12-17-14
238 FlandreScarlet9999vr 2.7% 4891 12-17-14
239 KaM Mark MaK 2.5% 4901 12-17-14
240 BeeAwwb 2.5% 4902 12-17-14
241 ShadouZaHejjihoggu 2.4% 4908 12-17-14
242 darkstarblaze 2.2% 4915 12-17-14
243 darkersupershadic 2.2% 4916 12-17-14
244 SpiritDragon1995 2.2% 4917 12-17-14
245 sonic29887 2.1% 4919 12-17-14
246 Got4n 2.1% 4921 12-17-14
246 Sarger001 2.1% 4921 12-17-14
248 Grady219 2.1% 4923 12-17-14
249 Jawaah 2.0% 4926 12-17-14
250 shadowblast63 Player Banned 2.0% 4927 12-17-14
251 Antek 1.9% 4930 12-17-14
252 Klaus 1.9% 4932 12-17-14
253 BioShadow 1.8% 4937 12-17-14
254 SkyBon 1.5% 4951 12-17-14
255 Shanekilz 1.5% 4953 12-17-14
256 isaihtb11 1.4% 4957 12-17-14
257 OhNoes! 1.4% 4958 12-17-14
258 zaktu40 1.3% 4960 12-17-14
259 gaara1234 1.3% 4963 12-17-14
260 MastaToken 1.1% 4970 12-17-14
261 Mister_Slick 1.0% 4974 12-17-14
262 Sonic06Fan 1.0% 4975 12-17-14
263 Rush Hero 1.0% 4977 12-17-14
264 SonicMega167 0.9% 4980 12-17-14
265 gamed00d 0.9% 4983 12-17-14
265 SilverK 0.9% 4983 12-17-14
267 oTaiIilLsS 0.8% 4984 12-17-14
268 Egor305 0.7% 4991 12-17-14
269 Burningskull123 0.5% 4999 12-17-14
270 Heroes_Hater 0.5% 5001 12-17-14
271 Sonicontherun 0.3% 5009 12-17-14
272 antiwwe 0.2% 5015 12-17-14
273 Iwannabelink 0.2% 5017 12-17-14
274 Genuine Hedgehog 0.1% 5019 12-17-14
275 dragondragon18 0.1% 5022 12-17-14
276 SonicK100 0.1% 5023 12-17-14
277 Tyrouble 0.0% 5028 12-17-14
278 LancexExWx 0.0% 5029 12-17-14
278 neji_hyuuga 0.0% 5029 12-17-14
278 Over 0.0% 5029 12-17-14
278 sdj6707 Player Banned 0.0% 5029 12-17-14
278 Tran Sonic Fan Player Banned 0.0% 5029 12-17-14

This page is using the New Data Table System. [FUTURE]

Game ID: 3 | Category ID: 1
Hits: 6,929 | Hits This Month: 48 | DB Calls: 24 | Mem Usage: 5.41 MB | Time: 0.22s | Printable

The Sonic Center v3.9
Copyright 2003-2011 by The Sonic Center Team.